sensor_id;sensor_type;location;lat;lon;timestamp;P1;durP1;ratioP1;P2;durP2;ratioP2
31782;SDS011;18351;47.560;9.708;2023-06-22T00:01:09;16.85;;;7.10;;
31782;SDS011;18351;47.560;9.708;2023-06-22T00:03:34;11.13;;;6.32;;
31782;SDS011;18351;47.560;9.708;2023-06-22T00:06:00;13.15;;;7.00;;
31782;SDS011;18351;47.560;9.708;2023-06-22T00:08:25;16.83;;;7.53;;
31782;SDS011;18351;47.560;9.708;2023-06-22T00:10:51;13.68;;;6.30;;
31782;SDS011;18351;47.560;9.708;2023-06-22T00:13:16;20.88;;;6.70;;
31782;SDS011;18351;47.560;9.708;2023-06-22T00:15:43;18.27;;;8.63;;
31782;SDS011;18351;47.560;9.708;2023-06-22T00:18:09;15.32;;;7.20;;
31782;SDS011;18351;47.560;9.708;2023-06-22T00:20:36;13.43;;;6.53;;
31782;SDS011;18351;47.560;9.708;2023-06-22T00:23:02;20.92;;;6.95;;
31782;SDS011;18351;47.560;9.708;2023-06-22T00:25:33;18.08;;;6.85;;
31782;SDS011;18351;47.560;9.708;2023-06-22T00:28:03;11.88;;;6.70;;
31782;SDS011;18351;47.560;9.708;2023-06-22T00:30:30;17.95;;;6.93;;
31782;SDS011;18351;47.560;9.708;2023-06-22T00:32:56;12.40;;;7.03;;
31782;SDS011;18351;47.560;9.708;2023-06-22T00:35:24;18.90;;;7.43;;
31782;SDS011;18351;47.560;9.708;2023-06-22T00:37:57;16.98;;;7.22;;
31782;SDS011;18351;47.560;9.708;2023-06-22T00:40:25;19.95;;;7.65;;
31782;SDS011;18351;47.560;9.708;2023-06-22T00:42:55;15.45;;;7.55;;
31782;SDS011;18351;47.560;9.708;2023-06-22T00:45:21;18.40;;;7.70;;
31782;SDS011;18351;47.560;9.708;2023-06-22T00:47:48;13.10;;;6.78;;
31782;SDS011;18351;47.560;9.708;2023-06-22T00:50:19;15.60;;;6.57;;
31782;SDS011;18351;47.560;9.708;2023-06-22T00:52:51;13.90;;;6.65;;
31782;SDS011;18351;47.560;9.708;2023-06-22T00:55:18;11.43;;;6.55;;
31782;SDS011;18351;47.560;9.708;2023-06-22T00:57:45;16.65;;;7.68;;
31782;SDS011;18351;47.560;9.708;2023-06-22T01:00:12;12.73;;;6.72;;
31782;SDS011;18351;47.560;9.708;2023-06-22T01:02:40;17.05;;;8.38;;
31782;SDS011;18351;47.560;9.708;2023-06-22T01:05:06;16.88;;;7.50;;
31782;SDS011;18351;47.560;9.708;2023-06-22T01:07:35;17.85;;;7.90;;
31782;SDS011;18351;47.560;9.708;2023-06-22T01:10:07;13.80;;;6.90;;
31782;SDS011;18351;47.560;9.708;2023-06-22T01:12:48;12.63;;;7.60;;
31782;SDS011;18351;47.560;9.708;2023-06-22T01:15:33;12.13;;;7.07;;
31782;SDS011;18351;47.560;9.708;2023-06-22T01:18:07;17.25;;;8.20;;
31782;SDS011;18351;47.560;9.708;2023-06-22T01:20:34;16.33;;;8.25;;
31782;SDS011;18351;47.560;9.708;2023-06-22T01:23:09;14.75;;;7.78;;
31782;SDS011;18351;47.560;9.708;2023-06-22T01:25:46;19.13;;;8.05;;
31782;SDS011;18351;47.560;9.708;2023-06-22T01:31:20;12.70;;;7.30;;
31782;SDS011;18351;47.560;9.708;2023-06-22T01:33:52;14.30;;;7.65;;
31782;SDS011;18351;47.560;9.708;2023-06-22T01:36:20;22.05;;;7.90;;
31782;SDS011;18351;47.560;9.708;2023-06-22T01:38:47;17.88;;;8.75;;
31782;SDS011;18351;47.560;9.708;2023-06-22T01:41:14;15.32;;;7.68;;
31782;SDS011;18351;47.560;9.708;2023-06-22T01:43:42;14.98;;;7.95;;
31782;SDS011;18351;47.560;9.708;2023-06-22T01:46:08;13.15;;;7.88;;
31782;SDS011;18351;47.560;9.708;2023-06-22T01:48:34;15.30;;;8.63;;
31782;SDS011;18351;47.560;9.708;2023-06-22T01:51:00;19.25;;;7.90;;
31782;SDS011;18351;47.560;9.708;2023-06-22T01:53:26;21.23;;;8.60;;
31782;SDS011;18351;47.560;9.708;2023-06-22T01:55:52;26.20;;;9.13;;
31782;SDS011;18351;47.560;9.708;2023-06-22T01:58:18;12.35;;;8.02;;
31782;SDS011;18351;47.560;9.708;2023-06-22T02:00:48;14.50;;;8.40;;
31782;SDS011;18351;47.560;9.708;2023-06-22T02:03:23;17.95;;;8.35;;
31782;SDS011;18351;47.560;9.708;2023-06-22T02:05:56;16.23;;;8.68;;
31782;SDS011;18351;47.560;9.708;2023-06-22T02:08:32;16.92;;;8.57;;
31782;SDS011;18351;47.560;9.708;2023-06-22T02:11:05;18.27;;;8.35;;
31782;SDS011;18351;47.560;9.708;2023-06-22T02:13:32;17.70;;;8.15;;
31782;SDS011;18351;47.560;9.708;2023-06-22T02:15:58;18.95;;;9.15;;
31782;SDS011;18351;47.560;9.708;2023-06-22T02:18:24;21.88;;;9.25;;
31782;SDS011;18351;47.560;9.708;2023-06-22T02:20:50;17.77;;;8.98;;
31782;SDS011;18351;47.560;9.708;2023-06-22T02:23:15;24.48;;;10.25;;
31782;SDS011;18351;47.560;9.708;2023-06-22T02:25:41;19.08;;;9.60;;
31782;SDS011;18351;47.560;9.708;2023-06-22T02:28:09;19.20;;;8.60;;
31782;SDS011;18351;47.560;9.708;2023-06-22T02:30:34;23.70;;;9.70;;
31782;SDS011;18351;47.560;9.708;2023-06-22T02:33:00;19.80;;;9.85;;
31782;SDS011;18351;47.560;9.708;2023-06-22T02:35:26;17.77;;;9.98;;
31782;SDS011;18351;47.560;9.708;2023-06-22T02:38:00;18.70;;;10.32;;
31782;SDS011;18351;47.560;9.708;2023-06-22T02:40:27;23.05;;;10.95;;
31782;SDS011;18351;47.560;9.708;2023-06-22T02:42:56;22.75;;;11.13;;
31782;SDS011;18351;47.560;9.708;2023-06-22T02:45:26;17.50;;;10.27;;
31782;SDS011;18351;47.560;9.708;2023-06-22T02:47:52;28.83;;;11.55;;
31782;SDS011;18351;47.560;9.708;2023-06-22T02:50:17;17.17;;;9.55;;
31782;SDS011;18351;47.560;9.708;2023-06-22T02:52:43;24.95;;;11.20;;
31782;SDS011;18351;47.560;9.708;2023-06-22T02:55:08;17.17;;;10.55;;
31782;SDS011;18351;47.560;9.708;2023-06-22T02:57:34;22.73;;;11.07;;
31782;SDS011;18351;47.560;9.708;2023-06-22T02:59:59;20.10;;;10.80;;
31782;SDS011;18351;47.560;9.708;2023-06-22T03:02:27;22.27;;;11.23;;
31782;SDS011;18351;47.560;9.708;2023-06-22T03:04:53;21.10;;;10.80;;
31782;SDS011;18351;47.560;9.708;2023-06-22T03:07:19;21.92;;;10.55;;
31782;SDS011;18351;47.560;9.708;2023-06-22T03:09:45;26.52;;;10.93;;
31782;SDS011;18351;47.560;9.708;2023-06-22T03:12:10;19.70;;;10.55;;
31782;SDS011;18351;47.560;9.708;2023-06-22T03:14:36;19.83;;;10.23;;
31782;SDS011;18351;47.560;9.708;2023-06-22T03:17:03;18.92;;;9.52;;
31782;SDS011;18351;47.560;9.708;2023-06-22T03:19:30;18.05;;;9.40;;
31782;SDS011;18351;47.560;9.708;2023-06-22T03:21:56;12.98;;;9.10;;
31782;SDS011;18351;47.560;9.708;2023-06-22T03:24:24;20.52;;;9.88;;
31782;SDS011;18351;47.560;9.708;2023-06-22T03:26:49;14.65;;;9.25;;
31782;SDS011;18351;47.560;9.708;2023-06-22T03:29:15;16.77;;;9.27;;
31782;SDS011;18351;47.560;9.708;2023-06-22T03:31:41;16.15;;;8.75;;
31782;SDS011;18351;47.560;9.708;2023-06-22T03:34:06;21.65;;;9.32;;
31782;SDS011;18351;47.560;9.708;2023-06-22T03:36:32;16.58;;;8.77;;
31782;SDS011;18351;47.560;9.708;2023-06-22T03:38:57;17.17;;;9.70;;
31782;SDS011;18351;47.560;9.708;2023-06-22T03:41:23;16.92;;;9.35;;
31782;SDS011;18351;47.560;9.708;2023-06-22T03:43:48;13.07;;;8.68;;
31782;SDS011;18351;47.560;9.708;2023-06-22T03:46:14;12.27;;;8.75;;
31782;SDS011;18351;47.560;9.708;2023-06-22T03:48:40;19.63;;;9.30;;
31782;SDS011;18351;47.560;9.708;2023-06-22T03:51:05;18.95;;;8.48;;
31782;SDS011;18351;47.560;9.708;2023-06-22T03:53:31;18.15;;;9.38;;
31782;SDS011;18351;47.560;9.708;2023-06-22T03:55:56;15.75;;;9.25;;
31782;SDS011;18351;47.560;9.708;2023-06-22T03:58:22;19.58;;;10.05;;
31782;SDS011;18351;47.560;9.708;2023-06-22T04:00:48;20.42;;;9.57;;
31782;SDS011;18351;47.560;9.708;2023-06-22T04:03:15;16.33;;;9.23;;
31782;SDS011;18351;47.560;9.708;2023-06-22T04:05:41;19.33;;;9.88;;
31782;SDS011;18351;47.560;9.708;2023-06-22T04:08:07;16.20;;;8.77;;
31782;SDS011;18351;47.560;9.708;2023-06-22T04:10:33;20.20;;;9.02;;
31782;SDS011;18351;47.560;9.708;2023-06-22T04:12:59;18.17;;;9.73;;
31782;SDS011;18351;47.560;9.708;2023-06-22T04:15:24;22.38;;;9.25;;
31782;SDS011;18351;47.560;9.708;2023-06-22T04:17:50;18.40;;;9.35;;
31782;SDS011;18351;47.560;9.708;2023-06-22T04:20:15;18.25;;;8.68;;
31782;SDS011;18351;47.560;9.708;2023-06-22T04:22:41;13.55;;;8.00;;
31782;SDS011;18351;47.560;9.708;2023-06-22T04:25:07;12.27;;;7.97;;
31782;SDS011;18351;47.560;9.708;2023-06-22T04:27:33;20.02;;;9.43;;
31782;SDS011;18351;47.560;9.708;2023-06-22T04:30:02;15.35;;;8.52;;
31782;SDS011;18351;47.560;9.708;2023-06-22T04:32:29;24.10;;;9.57;;
31782;SDS011;18351;47.560;9.708;2023-06-22T04:34:54;19.75;;;8.82;;
31782;SDS011;18351;47.560;9.708;2023-06-22T04:37:20;16.80;;;8.63;;
31782;SDS011;18351;47.560;9.708;2023-06-22T04:39:48;12.77;;;8.05;;
31782;SDS011;18351;47.560;9.708;2023-06-22T04:42:14;16.08;;;7.97;;
31782;SDS011;18351;47.560;9.708;2023-06-22T04:44:40;21.55;;;9.38;;
31782;SDS011;18351;47.560;9.708;2023-06-22T04:47:06;18.73;;;8.45;;
31782;SDS011;18351;47.560;9.708;2023-06-22T04:49:33;16.48;;;7.97;;
31782;SDS011;18351;47.560;9.708;2023-06-22T04:52:02;12.55;;;8.07;;
31782;SDS011;18351;47.560;9.708;2023-06-22T04:54:29;20.00;;;8.38;;
31782;SDS011;18351;47.560;9.708;2023-06-22T04:56:57;18.42;;;8.25;;
31782;SDS011;18351;47.560;9.708;2023-06-22T04:59:27;15.98;;;7.50;;
31782;SDS011;18351;47.560;9.708;2023-06-22T05:01:58;14.30;;;7.75;;
31782;SDS011;18351;47.560;9.708;2023-06-22T05:04:25;16.35;;;8.40;;
31782;SDS011;18351;47.560;9.708;2023-06-22T05:06:52;16.73;;;8.20;;
31782;SDS011;18351;47.560;9.708;2023-06-22T05:09:18;16.48;;;8.15;;
31782;SDS011;18351;47.560;9.708;2023-06-22T05:11:44;15.75;;;8.60;;
31782;SDS011;18351;47.560;9.708;2023-06-22T05:14:10;22.00;;;8.63;;
31782;SDS011;18351;47.560;9.708;2023-06-22T05:16:36;17.67;;;8.63;;
31782;SDS011;18351;47.560;9.708;2023-06-22T05:19:02;18.42;;;9.25;;
31782;SDS011;18351;47.560;9.708;2023-06-22T05:21:29;15.07;;;9.10;;
31782;SDS011;18351;47.560;9.708;2023-06-22T05:23:55;15.65;;;7.30;;
31782;SDS011;18351;47.560;9.708;2023-06-22T05:26:24;17.77;;;8.13;;
31782;SDS011;18351;47.560;9.708;2023-06-22T05:28:50;18.70;;;8.35;;
31782;SDS011;18351;47.560;9.708;2023-06-22T05:31:16;15.32;;;7.68;;
31782;SDS011;18351;47.560;9.708;2023-06-22T05:33:44;19.52;;;8.25;;
31782;SDS011;18351;47.560;9.708;2023-06-22T05:36:10;18.05;;;8.32;;
31782;SDS011;18351;47.560;9.708;2023-06-22T05:38:37;16.38;;;8.52;;
31782;SDS011;18351;47.560;9.708;2023-06-22T05:41:03;13.85;;;7.57;;
31782;SDS011;18351;47.560;9.708;2023-06-22T05:43:29;20.25;;;8.70;;
31782;SDS011;18351;47.560;9.708;2023-06-22T05:45:55;14.85;;;8.18;;
31782;SDS011;18351;47.560;9.708;2023-06-22T05:48:20;15.75;;;7.90;;
31782;SDS011;18351;47.560;9.708;2023-06-22T05:50:46;15.15;;;7.63;;
31782;SDS011;18351;47.560;9.708;2023-06-22T05:53:11;21.08;;;7.85;;
31782;SDS011;18351;47.560;9.708;2023-06-22T05:55:37;18.65;;;8.02;;
31782;SDS011;18351;47.560;9.708;2023-06-22T05:58:03;13.43;;;7.00;;
31782;SDS011;18351;47.560;9.708;2023-06-22T06:00:28;14.60;;;7.65;;
31782;SDS011;18351;47.560;9.708;2023-06-22T06:02:54;12.15;;;6.88;;
31782;SDS011;18351;47.560;9.708;2023-06-22T06:05:20;13.90;;;6.63;;
31782;SDS011;18351;47.560;9.708;2023-06-22T06:07:45;12.55;;;6.80;;
31782;SDS011;18351;47.560;9.708;2023-06-22T06:10:11;15.40;;;7.43;;
31782;SDS011;18351;47.560;9.708;2023-06-22T06:12:37;12.93;;;6.78;;
31782;SDS011;18351;47.560;9.708;2023-06-22T06:15:03;18.38;;;7.57;;
31782;SDS011;18351;47.560;9.708;2023-06-22T06:17:29;10.50;;;6.03;;
31782;SDS011;18351;47.560;9.708;2023-06-22T06:19:55;16.80;;;6.43;;
31782;SDS011;18351;47.560;9.708;2023-06-22T06:22:20;14.45;;;7.82;;
31782;SDS011;18351;47.560;9.708;2023-06-22T06:24:48;12.10;;;6.55;;
31782;SDS011;18351;47.560;9.708;2023-06-22T06:27:14;11.23;;;6.20;;
31782;SDS011;18351;47.560;9.708;2023-06-22T06:29:40;10.93;;;5.53;;
31782;SDS011;18351;47.560;9.708;2023-06-22T06:32:05;12.27;;;6.60;;
31782;SDS011;18351;47.560;9.708;2023-06-22T06:34:31;14.57;;;6.45;;
31782;SDS011;18351;47.560;9.708;2023-06-22T06:36:57;16.65;;;7.40;;
31782;SDS011;18351;47.560;9.708;2023-06-22T06:39:22;9.27;;;5.80;;
31782;SDS011;18351;47.560;9.708;2023-06-22T06:41:48;13.35;;;6.53;;
31782;SDS011;18351;47.560;9.708;2023-06-22T06:44:14;12.77;;;6.75;;
31782;SDS011;18351;47.560;9.708;2023-06-22T06:46:39;13.20;;;7.25;;
31782;SDS011;18351;47.560;9.708;2023-06-22T06:49:05;14.38;;;7.18;;
31782;SDS011;18351;47.560;9.708;2023-06-22T06:51:30;14.57;;;8.07;;
31782;SDS011;18351;47.560;9.708;2023-06-22T06:53:56;16.00;;;8.27;;
31782;SDS011;18351;47.560;9.708;2023-06-22T06:56:21;16.73;;;7.80;;
31782;SDS011;18351;47.560;9.708;2023-06-22T06:58:49;17.08;;;8.13;;
31782;SDS011;18351;47.560;9.708;2023-06-22T07:01:15;15.95;;;7.57;;
31782;SDS011;18351;47.560;9.708;2023-06-22T07:03:41;12.80;;;8.20;;
31782;SDS011;18351;47.560;9.708;2023-06-22T07:06:08;16.90;;;8.13;;
31782;SDS011;18351;47.560;9.708;2023-06-22T07:08:34;15.02;;;7.78;;
31782;SDS011;18351;47.560;9.708;2023-06-22T07:11:01;16.98;;;8.63;;
31782;SDS011;18351;47.560;9.708;2023-06-22T07:13:27;13.38;;;7.68;;
31782;SDS011;18351;47.560;9.708;2023-06-22T07:15:53;18.08;;;8.73;;
31782;SDS011;18351;47.560;9.708;2023-06-22T07:18:18;20.48;;;10.20;;
31782;SDS011;18351;47.560;9.708;2023-06-22T07:20:44;23.25;;;9.20;;
31782;SDS011;18351;47.560;9.708;2023-06-22T07:23:09;17.73;;;8.13;;
31782;SDS011;18351;47.560;9.708;2023-06-22T07:25:35;17.10;;;8.75;;
31782;SDS011;18351;47.560;9.708;2023-06-22T07:28:04;20.13;;;10.15;;
31782;SDS011;18351;47.560;9.708;2023-06-22T07:30:31;18.65;;;9.88;;
31782;SDS011;18351;47.560;9.708;2023-06-22T07:32:58;17.20;;;8.95;;
31782;SDS011;18351;47.560;9.708;2023-06-22T07:35:28;17.45;;;8.27;;
31782;SDS011;18351;47.560;9.708;2023-06-22T07:37:54;16.23;;;8.48;;
31782;SDS011;18351;47.560;9.708;2023-06-22T07:40:19;17.05;;;8.32;;
31782;SDS011;18351;47.560;9.708;2023-06-22T07:42:45;19.23;;;9.52;;
31782;SDS011;18351;47.560;9.708;2023-06-22T07:45:13;20.90;;;9.80;;
31782;SDS011;18351;47.560;9.708;2023-06-22T07:47:38;18.63;;;9.02;;
31782;SDS011;18351;47.560;9.708;2023-06-22T07:50:04;15.88;;;10.25;;
31782;SDS011;18351;47.560;9.708;2023-06-22T07:52:30;17.45;;;9.05;;
31782;SDS011;18351;47.560;9.708;2023-06-22T07:54:56;24.65;;;11.55;;
31782;SDS011;18351;47.560;9.708;2023-06-22T07:57:22;17.67;;;10.75;;
31782;SDS011;18351;47.560;9.708;2023-06-22T07:59:47;17.60;;;10.15;;
31782;SDS011;18351;47.560;9.708;2023-06-22T08:02:13;17.05;;;10.02;;
31782;SDS011;18351;47.560;9.708;2023-06-22T08:04:39;21.75;;;9.75;;
31782;SDS011;18351;47.560;9.708;2023-06-22T08:07:05;21.10;;;10.77;;
31782;SDS011;18351;47.560;9.708;2023-06-22T08:09:31;18.42;;;9.52;;
31782;SDS011;18351;47.560;9.708;2023-06-22T08:11:58;16.13;;;9.32;;
31782;SDS011;18351;47.560;9.708;2023-06-22T08:14:27;17.55;;;10.13;;
31782;SDS011;18351;47.560;9.708;2023-06-22T08:16:57;23.85;;;11.68;;
31782;SDS011;18351;47.560;9.708;2023-06-22T08:19:23;24.77;;;11.40;;
31782;SDS011;18351;47.560;9.708;2023-06-22T08:21:48;18.27;;;10.18;;
31782;SDS011;18351;47.560;9.708;2023-06-22T08:24:14;18.50;;;9.88;;
31782;SDS011;18351;47.560;9.708;2023-06-22T08:26:39;18.13;;;9.93;;
31782;SDS011;18351;47.560;9.708;2023-06-22T08:29:05;17.13;;;10.27;;
31782;SDS011;18351;47.560;9.708;2023-06-22T08:31:31;16.85;;;10.23;;
31782;SDS011;18351;47.560;9.708;2023-06-22T08:33:58;18.02;;;9.88;;
31782;SDS011;18351;47.560;9.708;2023-06-22T08:36:24;19.85;;;10.07;;
31782;SDS011;18351;47.560;9.708;2023-06-22T08:38:49;22.90;;;10.27;;
31782;SDS011;18351;47.560;9.708;2023-06-22T08:41:16;20.10;;;10.43;;
31782;SDS011;18351;47.560;9.708;2023-06-22T08:43:42;23.67;;;11.05;;
31782;SDS011;18351;47.560;9.708;2023-06-22T08:46:09;25.58;;;11.32;;
31782;SDS011;18351;47.560;9.708;2023-06-22T08:48:35;24.77;;;12.10;;
31782;SDS011;18351;47.560;9.708;2023-06-22T08:51:01;21.77;;;12.70;;
31782;SDS011;18351;47.560;9.708;2023-06-22T08:53:28;24.02;;;12.48;;
31782;SDS011;18351;47.560;9.708;2023-06-22T08:55:53;22.45;;;11.65;;
31782;SDS011;18351;47.560;9.708;2023-06-22T08:58:19;24.20;;;12.05;;
31782;SDS011;18351;47.560;9.708;2023-06-22T09:00:46;19.05;;;11.15;;
31782;SDS011;18351;47.560;9.708;2023-06-22T09:03:12;20.30;;;11.70;;
31782;SDS011;18351;47.560;9.708;2023-06-22T09:05:37;19.92;;;11.57;;
31782;SDS011;18351;47.560;9.708;2023-06-22T09:08:03;19.85;;;11.88;;
31782;SDS011;18351;47.560;9.708;2023-06-22T09:10:29;17.33;;;10.70;;
31782;SDS011;18351;47.560;9.708;2023-06-22T09:12:54;21.20;;;10.82;;
31782;SDS011;18351;47.560;9.708;2023-06-22T09:15:20;17.88;;;11.35;;
31782;SDS011;18351;47.560;9.708;2023-06-22T09:17:45;18.05;;;9.77;;
31782;SDS011;18351;47.560;9.708;2023-06-22T09:20:11;16.50;;;10.57;;
31782;SDS011;18351;47.560;9.708;2023-06-22T09:22:37;27.73;;;12.23;;
31782;SDS011;18351;47.560;9.708;2023-06-22T09:25:03;20.75;;;10.93;;
31782;SDS011;18351;47.560;9.708;2023-06-22T09:27:29;16.90;;;9.65;;
31782;SDS011;18351;47.560;9.708;2023-06-22T09:29:55;20.33;;;9.85;;
31782;SDS011;18351;47.560;9.708;2023-06-22T09:32:20;22.25;;;11.07;;
31782;SDS011;18351;47.560;9.708;2023-06-22T09:34:46;18.38;;;9.75;;
31782;SDS011;18351;47.560;9.708;2023-06-22T09:37:12;17.35;;;9.43;;
31782;SDS011;18351;47.560;9.708;2023-06-22T09:39:37;24.17;;;12.43;;
31782;SDS011;18351;47.560;9.708;2023-06-22T09:42:03;27.48;;;9.77;;
31782;SDS011;18351;47.560;9.708;2023-06-22T09:44:30;19.23;;;9.15;;
31782;SDS011;18351;47.560;9.708;2023-06-22T09:46:56;21.45;;;10.52;;
31782;SDS011;18351;47.560;9.708;2023-06-22T09:49:22;23.60;;;10.02;;
31782;SDS011;18351;47.560;9.708;2023-06-22T09:51:47;20.70;;;10.32;;
31782;SDS011;18351;47.560;9.708;2023-06-22T09:54:14;23.08;;;11.07;;
31782;SDS011;18351;47.560;9.708;2023-06-22T09:56:40;16.52;;;11.40;;
31782;SDS011;18351;47.560;9.708;2023-06-22T09:59:05;21.65;;;9.50;;
31782;SDS011;18351;47.560;9.708;2023-06-22T10:01:31;18.83;;;8.93;;
31782;SDS011;18351;47.560;9.708;2023-06-22T10:03:56;16.60;;;9.43;;
31782;SDS011;18351;47.560;9.708;2023-06-22T10:06:23;16.63;;;9.52;;
31782;SDS011;18351;47.560;9.708;2023-06-22T10:08:50;22.77;;;9.77;;
31782;SDS011;18351;47.560;9.708;2023-06-22T10:11:16;22.70;;;10.52;;
31782;SDS011;18351;47.560;9.708;2023-06-22T10:13:41;19.75;;;9.27;;
31782;SDS011;18351;47.560;9.708;2023-06-22T10:16:07;22.60;;;10.25;;
31782;SDS011;18351;47.560;9.708;2023-06-22T10:18:32;21.65;;;10.65;;
31782;SDS011;18351;47.560;9.708;2023-06-22T10:20:58;29.27;;;12.90;;
31782;SDS011;18351;47.560;9.708;2023-06-22T10:23:23;22.77;;;10.70;;
31782;SDS011;18351;47.560;9.708;2023-06-22T10:25:49;16.35;;;9.38;;
31782;SDS011;18351;47.560;9.708;2023-06-22T10:28:15;16.05;;;9.20;;
31782;SDS011;18351;47.560;9.708;2023-06-22T10:30:41;19.85;;;11.00;;
31782;SDS011;18351;47.560;9.708;2023-06-22T10:33:07;20.80;;;9.45;;
31782;SDS011;18351;47.560;9.708;2023-06-22T10:35:34;19.95;;;8.95;;
31782;SDS011;18351;47.560;9.708;2023-06-22T10:38:00;20.08;;;7.72;;
31782;SDS011;18351;47.560;9.708;2023-06-22T10:40:25;21.13;;;9.25;;
31782;SDS011;18351;47.560;9.708;2023-06-22T10:42:51;18.23;;;9.60;;
31782;SDS011;18351;47.560;9.708;2023-06-22T10:45:16;17.95;;;7.28;;
31782;SDS011;18351;47.560;9.708;2023-06-22T10:47:42;19.38;;;9.57;;
31782;SDS011;18351;47.560;9.708;2023-06-22T10:50:07;17.13;;;7.70;;
31782;SDS011;18351;47.560;9.708;2023-06-22T10:52:33;14.15;;;7.85;;
31782;SDS011;18351;47.560;9.708;2023-06-22T10:54:59;22.17;;;9.48;;
31782;SDS011;18351;47.560;9.708;2023-06-22T10:57:24;16.90;;;8.45;;
31782;SDS011;18351;47.560;9.708;2023-06-22T10:59:50;16.05;;;7.35;;
31782;SDS011;18351;47.560;9.708;2023-06-22T11:02:15;20.27;;;8.73;;
31782;SDS011;18351;47.560;9.708;2023-06-22T11:04:41;16.55;;;7.22;;
31782;SDS011;18351;47.560;9.708;2023-06-22T11:07:06;19.05;;;9.10;;
31782;SDS011;18351;47.560;9.708;2023-06-22T11:09:32;13.27;;;6.70;;
31782;SDS011;18351;47.560;9.708;2023-06-22T11:11:58;19.92;;;7.20;;
31782;SDS011;18351;47.560;9.708;2023-06-22T11:14:24;24.17;;;8.23;;
31782;SDS011;18351;47.560;9.708;2023-06-22T11:16:50;14.35;;;8.27;;
31782;SDS011;18351;47.560;9.708;2023-06-22T11:19:15;16.48;;;8.25;;
31782;SDS011;18351;47.560;9.708;2023-06-22T11:21:41;17.90;;;8.30;;
31782;SDS011;18351;47.560;9.708;2023-06-22T11:24:07;16.55;;;8.40;;
31782;SDS011;18351;47.560;9.708;2023-06-22T11:26:33;17.10;;;7.78;;
31782;SDS011;18351;47.560;9.708;2023-06-22T11:28:58;14.65;;;7.65;;
31782;SDS011;18351;47.560;9.708;2023-06-22T11:31:24;12.18;;;6.85;;
31782;SDS011;18351;47.560;9.708;2023-06-22T11:33:50;21.48;;;7.95;;
31782;SDS011;18351;47.560;9.708;2023-06-22T11:36:15;12.90;;;6.90;;
31782;SDS011;18351;47.560;9.708;2023-06-22T11:38:42;16.83;;;7.80;;
31782;SDS011;18351;47.560;9.708;2023-06-22T11:41:08;14.02;;;7.63;;
31782;SDS011;18351;47.560;9.708;2023-06-22T11:43:35;23.70;;;7.97;;
31782;SDS011;18351;47.560;9.708;2023-06-22T11:46:05;10.43;;;6.45;;
31782;SDS011;18351;47.560;9.708;2023-06-22T11:48:31;20.27;;;7.97;;
31782;SDS011;18351;47.560;9.708;2023-06-22T11:50:56;23.20;;;7.55;;
31782;SDS011;18351;47.560;9.708;2023-06-22T11:53:23;15.68;;;8.05;;
31782;SDS011;18351;47.560;9.708;2023-06-22T11:55:50;16.50;;;7.30;;
31782;SDS011;18351;47.560;9.708;2023-06-22T11:58:16;13.07;;;6.50;;
31782;SDS011;18351;47.560;9.708;2023-06-22T12:00:41;17.90;;;8.25;;
31782;SDS011;18351;47.560;9.708;2023-06-22T12:03:07;21.52;;;7.35;;
31782;SDS011;18351;47.560;9.708;2023-06-22T12:05:34;14.13;;;7.97;;
31782;SDS011;18351;47.560;9.708;2023-06-22T12:08:00;15.13;;;7.55;;
31782;SDS011;18351;47.560;9.708;2023-06-22T12:10:25;16.52;;;7.85;;
31782;SDS011;18351;47.560;9.708;2023-06-22T12:12:53;17.92;;;8.00;;
31782;SDS011;18351;47.560;9.708;2023-06-22T12:15:19;18.60;;;8.20;;
31782;SDS011;18351;47.560;9.708;2023-06-22T12:17:44;11.80;;;7.05;;
31782;SDS011;18351;47.560;9.708;2023-06-22T12:20:10;19.08;;;7.32;;
31782;SDS011;18351;47.560;9.708;2023-06-22T12:22:36;14.55;;;6.85;;
31782;SDS011;18351;47.560;9.708;2023-06-22T12:25:02;15.90;;;8.90;;
31782;SDS011;18351;47.560;9.708;2023-06-22T12:27:28;13.77;;;7.78;;
31782;SDS011;18351;47.560;9.708;2023-06-22T12:29:55;17.60;;;9.45;;
31782;SDS011;18351;47.560;9.708;2023-06-22T12:32:21;15.82;;;8.27;;
31782;SDS011;18351;47.560;9.708;2023-06-22T12:34:46;14.48;;;7.85;;
31782;SDS011;18351;47.560;9.708;2023-06-22T12:37:12;16.63;;;8.57;;
31782;SDS011;18351;47.560;9.708;2023-06-22T12:39:39;17.00;;;8.55;;
31782;SDS011;18351;47.560;9.708;2023-06-22T12:42:05;18.85;;;8.60;;
31782;SDS011;18351;47.560;9.708;2023-06-22T12:44:33;16.92;;;8.80;;
31782;SDS011;18351;47.560;9.708;2023-06-22T12:46:59;13.73;;;7.78;;
31782;SDS011;18351;47.560;9.708;2023-06-22T12:49:25;18.58;;;9.18;;
31782;SDS011;18351;47.560;9.708;2023-06-22T12:51:50;15.55;;;9.57;;
31782;SDS011;18351;47.560;9.708;2023-06-22T12:54:16;18.48;;;8.18;;
31782;SDS011;18351;47.560;9.708;2023-06-22T12:56:41;22.73;;;9.95;;
31782;SDS011;18351;47.560;9.708;2023-06-22T12:59:09;17.38;;;9.05;;
31782;SDS011;18351;47.560;9.708;2023-06-22T13:01:35;21.48;;;9.40;;
31782;SDS011;18351;47.560;9.708;2023-06-22T13:04:02;12.98;;;8.15;;
31782;SDS011;18351;47.560;9.708;2023-06-22T13:06:27;15.55;;;7.93;;
31782;SDS011;18351;47.560;9.708;2023-06-22T13:08:53;18.63;;;9.23;;
31782;SDS011;18351;47.560;9.708;2023-06-22T13:11:19;16.40;;;7.97;;
31782;SDS011;18351;47.560;9.708;2023-06-22T13:13:45;18.02;;;8.63;;
31782;SDS011;18351;47.560;9.708;2023-06-22T13:16:11;21.27;;;8.52;;
31782;SDS011;18351;47.560;9.708;2023-06-22T13:18:37;23.88;;;9.57;;
31782;SDS011;18351;47.560;9.708;2023-06-22T13:21:03;16.90;;;9.13;;
31782;SDS011;18351;47.560;9.708;2023-06-22T13:23:29;16.08;;;8.23;;
31782;SDS011;18351;47.560;9.708;2023-06-22T13:25:55;21.55;;;8.30;;
31782;SDS011;18351;47.560;9.708;2023-06-22T13:28:20;18.10;;;8.35;;
31782;SDS011;18351;47.560;9.708;2023-06-22T13:30:46;19.90;;;8.73;;
31782;SDS011;18351;47.560;9.708;2023-06-22T13:33:12;13.77;;;8.50;;
31782;SDS011;18351;47.560;9.708;2023-06-22T13:35:38;15.50;;;8.15;;
31782;SDS011;18351;47.560;9.708;2023-06-22T13:38:04;19.20;;;8.40;;
31782;SDS011;18351;47.560;9.708;2023-06-22T13:40:30;13.60;;;7.57;;
31782;SDS011;18351;47.560;9.708;2023-06-22T13:42:56;20.35;;;9.20;;
31782;SDS011;18351;47.560;9.708;2023-06-22T13:45:22;17.00;;;8.13;;
31782;SDS011;18351;47.560;9.708;2023-06-22T13:47:47;16.10;;;8.60;;
31782;SDS011;18351;47.560;9.708;2023-06-22T13:50:13;18.42;;;8.00;;
31782;SDS011;18351;47.560;9.708;2023-06-22T13:52:39;19.58;;;8.52;;
31782;SDS011;18351;47.560;9.708;2023-06-22T13:55:05;16.60;;;7.93;;
31782;SDS011;18351;47.560;9.708;2023-06-22T13:57:32;17.98;;;8.30;;
31782;SDS011;18351;47.560;9.708;2023-06-22T13:59:57;17.52;;;7.97;;
31782;SDS011;18351;47.560;9.708;2023-06-22T14:02:23;16.08;;;7.03;;
31782;SDS011;18351;47.560;9.708;2023-06-22T14:04:51;19.00;;;8.38;;
31782;SDS011;18351;47.560;9.708;2023-06-22T14:07:16;19.17;;;8.40;;
31782;SDS011;18351;47.560;9.708;2023-06-22T14:09:44;26.63;;;10.13;;
31782;SDS011;18351;47.560;9.708;2023-06-22T14:12:10;16.83;;;7.93;;
31782;SDS011;18351;47.560;9.708;2023-06-22T14:14:36;21.77;;;7.55;;
31782;SDS011;18351;47.560;9.708;2023-06-22T14:17:01;18.55;;;7.93;;
31782;SDS011;18351;47.560;9.708;2023-06-22T14:19:28;18.15;;;8.02;;
31782;SDS011;18351;47.560;9.708;2023-06-22T14:21:53;15.88;;;8.00;;
31782;SDS011;18351;47.560;9.708;2023-06-22T14:24:19;16.20;;;7.70;;
31782;SDS011;18351;47.560;9.708;2023-06-22T14:26:44;19.25;;;8.70;;
31782;SDS011;18351;47.560;9.708;2023-06-22T14:29:10;15.30;;;8.02;;
31782;SDS011;18351;47.560;9.708;2023-06-22T14:31:35;17.05;;;8.30;;